Time;durP1;ratioP1;P1;durP2;ratioP2;P2;SDS_P1;SDS_P2;PMS_P1;PMS_P2;Temp;Humidity;BMP_temperature;BMP_pressure;BME280_temperature;BME280_humidity;BME280_pressure;Samples;Min_cycle;Max_cycle;Signal;HPM_P1;HPM_P2
2023/09/03 08:26:07;;;;;;;6.63;5.82;;;;;;;24.62;50.03;64547.59;5128909;23;20224;-75
2023/09/03 08:28:34;;;;;;;6.78;6.10;;;;;;;24.76;49.60;64566.94;4869754;29;20430;-74
2023/09/03 08:31:01;;;;;;;7.45;6.40;;;;;;;24.46;49.77;64532.91;4888000;29;20230;-72
2023/09/03 08:33:28;;;;;;;6.47;5.90;;;;;;;24.57;50.20;64544.44;4893473;29;20207;-73
2023/09/03 08:35:55;;;;;;;7.97;5.95;;;;;;;24.70;48.75;64558.06;4889331;29;20222;-75
2023/09/03 08:38:22;;;;;;;6.20;5.68;;;;;;;24.72;48.54;64557.53;4886924;29;20199;-75
2023/09/03 08:40:49;;;;;;;9.15;5.63;;;;;;;24.67;48.58;64552.81;4891745;29;20238;-75
2023/09/03 08:43:19;;;;;;;6.57;6.07;;;;;;;24.90;47.57;64579.53;4892456;29;20225;-76
2023/09/03 08:45:51;;;;;;;6.10;5.68;;;;;;;24.95;47.66;64584.25;4899752;29;20570;-74
2023/09/03 08:48:18;;;;;;;6.55;6.05;;;;;;;25.19;47.74;64609.38;4891085;29;20519;-73
2023/09/03 08:50:45;;;;;;;6.32;5.90;;;;;;;25.15;46.16;64605.19;4896738;29;20246;-73
2023/09/03 08:53:13;;;;;;;5.90;5.45;;;;;;;25.12;46.00;64599.44;4899869;29;20226;-76
2023/09/03 08:55:40;;;;;;;5.57;5.10;;;;;;;25.40;44.29;64628.81;4886166;29;20402;-74
2023/09/03 08:58:07;;;;;;;6.13;5.47;;;;;;;25.47;45.32;64636.13;4890989;29;20226;-76
2023/09/03 09:00:38;;;;;;;6.05;5.47;;;;;;;25.50;46.07;64643.97;4897567;29;20285;-75
2023/09/03 09:03:09;;;;;;;6.00;5.60;;;;;;;25.58;45.65;64649.72;4904917;29;20202;-75
2023/09/03 09:05:37;;;;;;;6.03;5.38;;;;;;;25.83;42.67;64675.94;4891802;29;20568;-75
2023/09/03 09:08:05;;;;;;;4.93;4.63;;;;;;;25.79;43.12;64669.13;4887777;29;20288;-76
2023/09/03 09:10:37;;;;;;;5.00;4.60;;;;;;;25.95;42.85;64689.06;4887538;29;20226;-75
2023/09/03 09:13:07;;;;;;;5.28;4.80;;;;;;;26.14;40.53;64711.56;4893704;29;21486;-74
2023/09/03 09:15:39;;;;;;;6.85;5.13;;;;;;;26.28;41.64;64720.00;4890836;29;20238;-75
2023/09/03 09:18:09;;;;;;;6.03;5.53;;;;;;;26.20;40.92;64715.25;4892907;29;20210;-76
2023/09/03 09:20:39;;;;;;;6.63;6.03;;;;;;;26.48;40.46;64744.09;4903003;29;20542;-74
2023/09/03 09:23:07;;;;;;;4.93;4.55;;;;;;;26.66;38.86;64760.34;4898657;29;20515;-75
2023/09/03 09:25:35;;;;;;;5.80;5.30;;;;;;;26.69;40.36;64771.38;4890861;29;20254;-75
2023/09/03 09:28:11;;;;;;;5.05;4.75;;;;;;;26.77;40.88;64776.63;4892691;29;20210;-74
2023/09/03 09:30:53;;;;;;;5.90;5.40;;;;;;;26.90;40.68;64785.03;4688752;29;250817;-78
2023/09/03 09:33:20;;;;;;;6.50;4.72;;;;;;;27.05;39.08;64803.91;4778388;29;20248;-75
2023/09/03 09:35:48;;;;;;;6.97;6.25;;;;;;;26.95;37.81;64790.28;4834393;29;20228;-75
2023/09/03 09:38:15;;;;;;;5.75;5.35;;;;;;;26.85;37.22;64785.00;4834979;29;20217;-75
2023/09/03 09:40:42;;;;;;;5.15;4.82;;;;;;;27.02;36.20;64802.84;4830736;29;20476;-75
2023/09/03 09:43:10;;;;;;;5.50;5.10;;;;;;;27.12;36.87;64818.56;4838687;29;20205;-76
2023/09/03 09:45:50;;;;;;;5.25;4.95;;;;;;;27.12;36.80;64815.94;4847967;29;20224;-76
2023/09/03 09:48:17;;;;;;;5.85;5.15;;;;;;;27.07;37.44;64805.47;4843590;29;20280;-78
2023/09/03 09:50:45;;;;;;;5.22;4.82;;;;;;;27.10;37.79;64813.84;4835651;29;20240;-77
2023/09/03 09:53:25;;;;;;;8.57;5.07;;;;;;;27.22;36.98;64824.34;4837578;29;20247;-74
2023/09/03 09:55:59;;;;;;;5.72;5.22;;;;;;;27.14;37.35;64812.81;4823677;29;20456;-74
2023/09/03 09:58:36;;;;;;;5.50;5.10;;;;;;;27.40;37.45;64840.13;4831495;29;20567;-77
2023/09/03 10:01:05;;;;;;;5.82;5.40;;;;;;;27.46;38.04;64843.78;4835083;29;20244;-76
2023/09/03 10:03:42;;;;;;;6.03;5.63;;;;;;;27.52;37.05;64855.31;4835756;29;20217;-75
2023/09/03 10:06:10;;;;;;;5.72;5.22;;;;;;;27.54;36.80;64854.81;4837245;29;20293;-73
2023/09/03 10:08:37;;;;;;;5.93;5.43;;;;;;;27.61;36.52;64861.63;4832911;29;20220;-74
2023/09/03 10:11:04;;;;;;;5.85;5.35;;;;;;;27.77;36.55;64886.25;4837354;29;20436;-74
2023/09/03 10:13:32;;;;;;;5.47;5.07;;;;;;;27.64;36.93;64859.53;4835114;29;20208;-76
2023/09/03 10:16:03;;;;;;;5.78;5.20;;;;;;;27.82;37.24;64886.28;4832576;29;20260;-77
2023/09/03 10:18:33;;;;;;;5.28;4.97;;;;;;;27.64;35.62;64867.38;4836085;29;20210;-79
2023/09/03 10:21:04;;;;;;;5.55;5.15;;;;;;;27.76;35.92;64883.13;4839259;29;20236;-76
2023/09/03 10:23:36;;;;;;;5.43;4.75;;;;;;;27.79;35.25;64883.13;4834389;29;20268;-75
2023/09/03 10:26:05;;;;;;;6.10;5.60;;;;;;;27.77;34.62;64878.94;4823335;29;20433;-75
2023/09/03 10:28:37;;;;;;;5.47;4.78;;;;;;;27.92;35.40;64894.19;4820389;29;20254;-77
2023/09/03 10:31:04;;;;;;;6.57;4.80;;;;;;;27.88;33.14;64893.09;4830398;29;20261;-75
2023/09/03 10:33:35;;;;;;;5.03;4.72;;;;;;;27.91;33.50;64895.75;4829110;29;20232;-74
2023/09/03 10:36:16;;;;;;;5.30;4.90;;;;;;;27.86;32.63;64893.09;4826591;29;20240;-78
2023/09/03 10:38:43;;;;;;;5.07;4.75;;;;;;;27.83;33.62;64882.09;4846944;29;20201;-76
2023/09/03 10:41:18;;;;;;;4.95;4.55;;;;;;;28.00;33.93;64905.72;4836437;29;20540;-74
2023/09/03 10:43:46;;;;;;;5.88;4.88;;;;;;;28.19;33.02;64928.28;4830990;29;20224;-74
2023/09/03 10:46:13;;;;;;;4.47;4.18;;;;;;;28.26;32.49;64933.03;4830485;29;20228;-75
2023/09/03 10:48:52;;;;;;;4.55;4.25;;;;;;;28.30;32.64;64934.59;4835984;29;20242;-76
2023/09/03 10:51:33;;;;;;;5.40;5.00;;;;;;;27.98;32.21;64903.09;4838859;29;20236;-75
2023/09/03 10:54:16;;;;;;;5.07;4.65;;;;;;;27.82;32.04;64883.66;4820601;29;20205;-75
2023/09/03 10:57:17;;;;;;;5.05;4.75;;;;;;;27.76;32.17;64880.50;4817659;29;20206;-76
2023/09/03 11:00:37;;;;;;;4.90;4.10;;;;;;;27.44;32.97;64844.31;4818090;29;20290;-78
2023/09/03 11:03:23;;;;;;;4.13;3.88;;;;;;;27.27;32.91;64829.06;4821410;29;20216;-74
2023/09/03 11:06:19;;;;;;;4.57;4.38;;;;;;;27.39;32.46;64841.69;4835695;29;20303;-75
2023/09/03 11:08:46;;;;;;;4.63;4.28;;;;;;;27.44;32.48;64852.16;4835345;29;20243;-73
2023/09/03 11:11:20;;;;;;;5.10;4.70;;;;;;;27.62;33.05;64860.59;4828239;29;20248;-75
2023/09/03 11:13:51;;;;;;;4.75;4.45;;;;;;;27.83;31.63;64889.94;4819121;29;20231;-74
2023/09/03 11:16:18;;;;;;;4.28;3.65;;;;;;;27.94;31.83;64901.53;4834496;29;20424;-75
2023/09/03 11:18:49;;;;;;;4.22;3.92;;;;;;;27.94;31.78;64896.28;4835836;29;20216;-75
2023/09/03 11:21:18;;;;;;;4.60;3.75;;;;;;;27.99;31.12;64901.53;4825912;29;20236;-74
2023/09/03 11:24:04;;;;;;;4.72;4.38;;;;;;;27.88;31.00;64890.50;4834376;29;20205;-74
2023/09/03 11:26:32;;;;;;;4.30;4.00;;;;;;;27.98;31.13;64900.47;4833956;29;20555;-76
2023/09/03 11:28:59;;;;;;;4.30;4.00;;;;;;;28.24;31.15;64930.91;4832629;29;20209;-77
2023/09/03 11:31:26;;;;;;;4.18;3.88;;;;;;;28.29;30.55;64935.63;4832669;29;20232;-75
2023/09/03 11:33:55;;;;;;;5.03;4.30;;;;;;;28.37;30.76;64944.56;4827725;29;20208;-74
2023/09/03 11:36:24;;;;;;;3.88;3.67;;;;;;;28.43;31.14;64956.13;4833732;29;20224;-74
2023/09/03 11:38:52;;;;;;;4.65;3.65;;;;;;;28.53;30.77;64962.97;4828429;29;20208;-73
2023/09/03 11:41:19;;;;;;;4.03;3.83;;;;;;;28.43;30.70;64948.25;4834381;29;20251;-73
2023/09/03 11:43:47;;;;;;;4.05;3.78;;;;;;;28.47;31.01;64954.03;4834023;29;20223;-76
2023/09/03 11:46:16;;;;;;;3.97;3.67;;;;;;;28.30;30.61;64937.22;4833321;29;20416;-75
2023/09/03 11:48:49;;;;;;;3.67;3.40;;;;;;;28.42;31.37;64949.81;4831762;29;20221;-74
2023/09/03 11:51:25;;;;;;;4.13;3.72;;;;;;;28.54;31.25;64958.78;4833934;29;20232;-75
2023/09/03 11:53:51;;;;;;;4.85;4.45;;;;;;;28.76;30.89;64985.03;4835068;29;20205;-73
2023/09/03 11:56:21;;;;;;;4.20;3.90;;;;;;;28.86;30.28;64995.00;4835641;29;20232;-74
2023/09/03 11:58:53;;;;;;;4.13;3.90;;;;;;;28.69;30.49;64980.28;4836020;29;20303;-75
2023/09/03 12:01:20;;;;;;;3.97;3.72;;;;;;;28.76;30.91;64981.88;4831036;29;20476;-74
2023/09/03 12:03:47;;;;;;;4.32;4.03;;;;;;;28.77;30.71;64985.56;4823252;29;20223;-77
2023/09/03 12:06:15;;;;;;;4.75;3.88;;;;;;;28.88;30.52;64997.63;4830644;29;20232;-75
2023/09/03 12:08:44;;;;;;;4.15;3.85;;;;;;;29.01;30.46;65006.03;4832617;29;20205;-73
2023/09/03 12:11:12;;;;;;;4.60;4.30;;;;;;;29.06;30.25;65016.53;4829309;29;20274;-73
2023/09/03 12:13:41;;;;;;;4.60;4.30;;;;;;;29.07;30.60;65014.97;4830738;29;20597;-75
2023/09/03 12:16:09;;;;;;;4.65;4.25;;;;;;;29.08;30.96;65023.38;4830337;29;20229;-75
2023/09/03 12:18:38;;;;;;;4.30;4.10;;;;;;;28.88;31.23;64997.09;4834108;29;20591;-74
2023/09/03 12:21:07;;;;;;;3.75;3.55;;;;;;;28.63;31.43;64968.22;4829463;29;20248;-77
2023/09/03 12:23:37;;;;;;;4.10;3.80;;;;;;;28.54;31.66;64959.31;4831495;29;20205;-75
2023/09/03 12:26:07;;;;;;;4.72;4.43;;;;;;;28.62;32.57;64969.78;4825591;29;20230;-74
2023/09/03 12:28:36;;;;;;;4.40;4.07;;;;;;;28.76;31.45;64981.88;4835691;29;20204;-74
2023/09/03 12:31:04;;;;;;;4.60;4.30;;;;;;;29.07;30.62;65017.59;4827592;29;20217;-74
2023/09/03 12:33:48;;;;;;;4.40;4.10;;;;;;;29.25;30.76;65036.00;4823458;29;20197;-75
2023/09/03 12:36:16;;;;;;;4.50;4.30;;;;;;;29.63;30.45;65075.94;4833997;29;20221;-77
2023/09/03 12:38:51;;;;;;;4.72;4.20;;;;;;;29.80;30.49;65091.19;4837541;29;20546;-75
2023/09/03 12:41:20;;;;;;;4.30;4.00;;;;;;;29.83;30.45;65094.34;4837727;29;20233;-73
2023/09/03 12:43:47;;;;;;;4.35;3.95;;;;;;;29.45;30.42;65057.53;4830363;29;20209;-76
2023/09/03 12:46:14;;;;;;;4.53;4.22;;;;;;;29.89;32.18;65097.50;4835166;29;20288;-73
2023/09/03 12:48:43;;;;;;;4.63;4.22;;;;;;;29.87;29.91;65103.28;4825619;29;20221;-73
2023/09/03 12:51:10;;;;;;;4.72;4.38;;;;;;;30.15;29.97;65127.97;4829937;29;20257;-73
2023/09/03 12:53:39;;;;;;;4.65;4.30;;;;;;;30.10;29.79;65127.44;4834265;29;20254;-74
2023/09/03 12:56:05;;;;;;;7.15;4.25;;;;;;;29.95;30.73;65109.03;4835134;29;20228;-75
2023/09/03 12:58:34;;;;;;;4.47;4.20;;;;;;;30.03;30.80;65114.84;4826331;29;20198;-76
2023/09/03 13:01:01;;;;;;;4.00;3.70;;;;;;;30.44;29.15;65155.34;4829429;29;20235;-73
2023/09/03 13:03:29;;;;;;;4.78;4.43;;;;;;;30.60;30.18;65177.41;4835648;29;20252;-74
2023/09/03 13:05:56;;;;;;;5.57;5.18;;;;;;;30.32;29.91;65148.50;4835648;29;20239;-75
2023/09/03 13:08:23;;;;;;;5.63;5.13;;;;;;;30.68;30.86;65185.84;4835549;29;20205;-74
2023/09/03 13:10:51;;;;;;;4.70;4.40;;;;;;;31.13;29.58;65227.91;4844555;29;20303;-73
2023/09/03 13:13:18;;;;;;;5.18;4.88;;;;;;;31.46;30.55;65264.78;4831375;29;20205;-76
2023/09/03 13:15:46;;;;;;;5.18;4.78;;;;;;;31.25;29.18;65242.66;4832320;29;20228;-75
2023/09/03 13:18:14;;;;;;;5.00;4.53;;;;;;;31.65;29.67;65287.91;4832722;29;20216;-75
2023/09/03 13:20:42;;;;;;;4.70;4.30;;;;;;;32.07;28.67;65328.44;4832970;29;20228;-73
2023/09/03 13:23:09;;;;;;;4.78;4.47;;;;;;;31.94;28.22;65315.31;4823213;29;20529;-74
2023/09/03 13:25:37;;;;;;;5.20;4.78;;;;;;;31.80;27.92;65305.81;4841893;29;20540;-75
2023/09/03 13:28:06;;;;;;;6.85;4.93;;;;;;;31.81;27.89;65301.59;4833474;29;20209;-73
2023/09/03 13:30:35;;;;;;;4.90;4.60;;;;;;;32.03;27.65;65326.88;4832380;29;20234;-75
2023/09/03 13:33:04;;;;;;;5.55;4.63;;;;;;;32.57;27.41;65381.13;4833125;29;20213;-74
2023/09/03 13:35:32;;;;;;;4.55;4.25;;;;;;;32.83;26.49;65408.50;4828784;29;20551;-73
2023/09/03 13:37:59;;;;;;;4.40;4.10;;;;;;;33.01;26.45;65426.97;4838538;29;20197;-74
2023/09/03 13:40:26;;;;;;;4.82;4.32;;;;;;;32.58;26.05;65387.47;4833919;29;20227;-75
2023/09/03 13:42:53;;;;;;;6.13;4.55;;;;;;;31.91;26.74;65314.25;4835170;29;20252;-73
2023/09/03 13:45:22;;;;;;;6.68;4.57;;;;;;;32.20;26.38;65342.69;4831505;29;20243;-75
2023/09/03 13:47:49;;;;;;;5.20;4.70;;;;;;;32.13;27.04;65340.06;4834214;29;20205;-76
2023/09/03 13:50:17;;;;;;;4.68;4.30;;;;;;;31.93;27.25;65316.88;4829089;29;20462;-74
2023/09/03 13:52:44;;;;;;;4.63;4.22;;;;;;;32.09;26.67;65331.09;4834645;29;20222;-74
2023/09/03 13:55:11;;;;;;;4.07;3.67;;;;;;;31.09;27.76;65225.81;4827801;29;20237;-73
2023/09/03 13:57:38;;;;;;;4.75;4.40;;;;;;;30.80;28.21;65195.84;4833594;29;20207;-75
2023/09/03 14:00:06;;;;;;;3.92;3.72;;;;;;;30.39;29.01;65160.59;4835825;29;20231;-75
2023/09/03 14:02:34;;;;;;;4.05;3.65;;;;;;;29.60;30.29;65072.25;4833872;29;20568;-76
2023/09/03 14:05:01;;;;;;;4.15;3.85;;;;;;;29.28;30.97;65041.78;4830283;29;20256;-74
2023/09/03 14:07:29;;;;;;;4.35;3.90;;;;;;;29.15;31.49;65022.84;4837318;29;20209;-74
2023/09/03 14:09:57;;;;;;;4.05;3.75;;;;;;;28.86;32.26;64995.53;4836169;29;20225;-77
2023/09/03 14:12:25;;;;;;;4.07;3.83;;;;;;;28.65;32.01;64973.47;4830262;29;20255;-77
2023/09/03 14:14:52;;;;;;;4.25;3.95;;;;;;;28.48;32.52;64952.44;4835307;29;20420;-75
2023/09/03 14:17:20;;;;;;;4.13;3.92;;;;;;;28.62;32.21;64969.78;4833931;29;20264;-75
2023/09/03 14:19:48;;;;;;;3.78;3.58;;;;;;;28.70;32.14;64970.34;4830224;29;20259;-78
2023/09/03 14:22:15;;;;;;;4.40;4.00;;;;;;;28.54;32.58;64961.38;4830477;29;20228;-75
2023/09/03 14:24:44;;;;;;;3.80;3.60;;;;;;;28.40;32.88;64950.34;4837324;29;20220;-74
2023/09/03 14:27:12;;;;;;;3.92;3.63;;;;;;;28.24;33.33;64927.78;4834888;29;20513;-76
2023/09/03 14:29:39;;;;;;;4.10;3.90;;;;;;;28.36;33.14;64945.59;4831398;29;20228;-74
2023/09/03 14:32:07;;;;;;;3.88;3.65;;;;;;;28.18;33.39;64924.63;4830805;29;20247;-74
2023/09/03 14:34:34;;;;;;;4.38;4.07;;;;;;;28.12;33.57;64909.94;4834642;29;20556;-76
2023/09/03 14:37:01;;;;;;;4.10;3.80;;;;;;;28.22;34.09;64930.91;4835552;29;20211;-75
2023/09/03 14:39:28;;;;;;;4.45;4.15;;;;;;;28.21;34.18;64927.25;4832404;29;20264;-76
2023/09/03 14:41:56;;;;;;;4.05;3.83;;;;;;;28.34;33.32;64938.78;4833008;29;20205;-75
2023/09/03 14:44:23;;;;;;;4.70;4.07;;;;;;;28.90;32.55;64997.09;4832057;29;20211;-75
2023/09/03 14:46:50;;;;;;;4.43;4.13;;;;;;;29.12;32.54;65025.47;4832536;29;20212;-74
2023/09/03 14:49:20;;;;;;;4.00;3.67;;;;;;;29.36;32.33;65047.53;4832557;29;20282;-77
2023/09/03 14:51:47;;;;;;;3.92;3.63;;;;;;;29.49;31.51;65061.22;4832764;29;20254;-76
2023/09/03 14:54:15;;;;;;;4.00;3.80;;;;;;;29.49;31.58;65061.22;4836090;29;20246;-76
2023/09/03 14:56:42;;;;;;;4.90;4.45;;;;;;;29.14;32.48;65027.06;4828793;29;20213;-74
2023/09/03 14:59:10;;;;;;;3.83;3.63;;;;;;;28.72;32.88;64977.66;4831364;29;20740;-76
2023/09/03 15:01:37;;;;;;;4.15;3.85;;;;;;;28.63;33.05;64968.72;4828804;29;20228;-77
2023/09/03 15:04:05;;;;;;;4.15;3.85;;;;;;;28.64;34.06;64969.81;4835098;29;20236;-75
2023/09/03 15:06:32;;;;;;;5.05;4.55;;;;;;;28.62;33.49;64969.78;4829671;29;20231;-75
2023/09/03 15:08:59;;;;;;;3.65;3.45;;;;;;;28.31;33.31;64937.75;4837306;29;20255;-75
2023/09/03 15:11:26;;;;;;;4.53;4.13;;;;;;;28.15;33.59;64918.31;4833173;29;20233;-75
2023/09/03 15:13:56;;;;;;;4.20;3.90;;;;;;;28.18;33.14;64924.09;4833741;29;20240;-75
2023/09/03 15:16:24;;;;;;;4.40;4.13;;;;;;;28.16;33.59;64922.50;4825292;29;20221;-73
2023/09/03 15:18:51;;;;;;;7.55;3.85;;;;;;;28.16;34.32;64919.38;4832488;29;20395;-76
2023/09/03 15:21:19;;;;;;;4.40;4.10;;;;;;;28.44;33.71;64951.38;4831537;29;20232;-77
2023/09/03 15:23:46;;;;;;;3.92;3.63;;;;;;;28.61;33.23;64966.66;4831734;29;20260;-76
2023/09/03 15:26:13;;;;;;;3.85;3.65;;;;;;;28.73;32.82;64978.72;4831315;29;20238;-75
2023/09/03 15:28:40;;;;;;;3.83;3.63;;;;;;;28.65;33.08;64973.47;4823492;29;20374;-76
2023/09/03 15:31:07;;;;;;;3.92;3.70;;;;;;;28.81;32.65;64987.13;4835557;29;20232;-77
2023/09/03 15:33:36;;;;;;;4.22;3.92;;;;;;;29.11;32.51;65021.28;4826116;29;20389;-73
2023/09/03 15:36:06;;;;;;;5.32;4.57;;;;;;;29.24;32.34;65035.47;4834096;29;20233;-76
2023/09/03 15:38:33;;;;;;;4.10;3.70;;;;;;;29.14;32.35;65027.59;4833789;29;20209;-76
2023/09/03 15:41:00;;;;;;;4.03;3.75;;;;;;;28.63;33.05;64971.34;4828472;29;20239;-74
2023/09/03 15:43:27;;;;;;;4.00;3.80;;;;;;;28.27;33.70;64934.06;4832290;29;20435;-75
2023/09/03 15:45:54;;;;;;;3.50;3.30;;;;;;;28.27;33.73;64936.16;4834548;29;20220;-75
2023/09/03 15:48:21;;;;;;;5.15;3.90;;;;;;;28.33;33.80;64937.22;4829189;29;20493;-75
2023/09/03 15:50:50;;;;;;;4.78;4.30;;;;;;;28.25;33.87;64934.06;4835500;29;20237;-73
2023/09/03 15:53:16;;;;;;;3.88;3.67;;;;;;;28.09;33.88;64915.19;4833488;29;20500;-72
2023/09/03 15:55:44;;;;;;;4.35;4.05;;;;;;;27.75;34.52;64878.94;4834790;29;20229;-73
2023/09/03 15:58:11;;;;;;;3.88;3.35;;;;;;;27.52;34.77;64855.31;4835068;29;20280;-74
2023/09/03 16:00:39;;;;;;;4.00;3.40;;;;;;;27.32;35.37;64834.31;4830164;29;20579;-73
2023/09/03 16:03:07;;;;;;;9.63;4.35;;;;;;;27.28;35.59;64827.50;4835504;29;20233;-72
2023/09/03 16:05:34;;;;;;;5.78;3.92;;;;;;;27.31;35.53;64828.06;4839105;29;20221;-74
2023/09/03 16:08:02;;;;;;;7.40;4.00;;;;;;;27.35;35.28;64837.50;4834065;29;20212;-74
2023/09/03 16:10:29;;;;;;;12.13;3.78;;;;;;;27.41;35.70;64846.38;4834799;29;20240;-74
2023/09/03 16:12:58;;;;;;;5.53;3.92;;;;;;;27.51;35.43;64853.75;4835841;29;20520;-74
2023/09/03 16:15:26;;;;;;;6.68;3.85;;;;;;;27.49;35.74;64849.53;4835802;29;20333;-75
2023/09/03 16:17:54;;;;;;;4.25;3.95;;;;;;;27.45;35.72;64842.22;4834122;29;20227;-75
2023/09/03 16:20:22;;;;;;;5.00;3.75;;;;;;;27.33;36.09;64834.84;4838531;29;20240;-73
2023/09/03 16:22:49;;;;;;;4.32;4.00;;;;;;;27.18;36.77;64819.63;4836510;29;20289;-74
2023/09/03 16:25:18;;;;;;;4.65;4.28;;;;;;;27.09;37.22;64810.19;4832615;29;20244;-71
2023/09/03 16:27:45;;;;;;;5.45;4.95;;;;;;;26.97;37.22;64798.13;4832410;29;20197;-75
2023/09/03 16:30:13;;;;;;;4.53;4.22;;;;;;;26.86;37.45;64788.66;4835249;29;20224;-77
2023/09/03 16:32:42;;;;;;;4.03;3.83;;;;;;;26.74;38.24;64774.00;4831741;29;20276;-74
2023/09/03 16:35:09;;;;;;;5.22;3.85;;;;;;;26.69;38.01;64768.22;4838226;29;20235;-73
2023/09/03 16:37:36;;;;;;;4.28;3.97;;;;;;;26.61;37.80;64759.81;4825148;29;20427;-76
2023/09/03 16:40:05;;;;;;;4.63;4.28;;;;;;;26.46;38.45;64744.09;4827606;29;20236;-74
2023/09/03 16:42:33;;;;;;;4.47;4.18;;;;;;;26.44;38.45;64742.00;4833973;29;20219;-75
2023/09/03 16:45:00;;;;;;;4.90;4.35;;;;;;;26.33;39.38;64725.75;4831921;29;20236;-75
2023/09/03 16:47:28;;;;;;;4.50;4.20;;;;;;;26.25;39.56;64725.19;4826441;29;20228;-75
2023/09/03 16:49:56;;;;;;;9.55;7.93;;;;;;;26.26;39.74;64720.50;4828166;29;20236;-74
2023/09/03 16:52:24;;;;;;;11.60;7.30;;;;;;;26.19;39.97;64716.31;4829371;29;20213;-73
2023/09/03 16:54:53;;;;;;;9.10;7.03;;;;;;;26.15;40.55;64712.63;4822760;29;20228;-75
2023/09/03 16:57:20;;;;;;;12.48;6.35;;;;;;;26.09;41.20;64706.34;4826298;29;20236;-73
2023/09/03 16:59:48;;;;;;;6.00;5.40;;;;;;;26.03;41.20;64696.91;4827552;29;20267;-73
2023/09/03 17:02:15;;;;;;;5.07;4.55;;;;;;;25.98;41.23;64700.03;4828359;29;20213;-74
2023/09/03 17:04:43;;;;;;;5.63;4.90;;;;;;;25.81;41.63;64676.44;4829579;29;20247;-76
2023/09/03 17:07:10;;;;;;;6.30;5.70;;;;;;;25.79;42.18;64674.34;4817244;29;20259;-74
2023/09/03 17:09:37;;;;;;;8.15;5.43;;;;;;;25.75;42.40;64670.16;4826813;29;20251;-74
2023/09/03 17:12:05;;;;;;;6.22;5.65;;;;;;;25.58;43.03;64649.72;4829856;29;20212;-73
2023/09/03 17:14:32;;;;;;;9.95;6.20;;;;;;;25.33;44.10;64628.75;4820551;29;20225;-74
2023/09/03 17:17:05;;;;;;;10.32;6.82;;;;;;;24.90;48.98;64581.63;4832567;29;20203;-73
2023/09/03 17:19:32;;;;;;;8.68;6.50;;;;;;;24.50;48.22;64537.09;4829661;29;20252;-73
2023/09/03 17:21:59;;;;;;;5.70;5.25;;;;;;;24.19;47.47;64507.78;4825341;29;20205;-74
2023/09/03 17:24:26;;;;;;;5.05;4.72;;;;;;;24.05;50.47;64487.38;4834184;29;20291;-73
2023/09/03 17:26:53;;;;;;;11.70;5.53;;;;;;;23.76;52.31;64462.75;4824488;29;20257;-73
2023/09/03 17:29:21;;;;;;;5.25;4.72;;;;;;;23.49;56.32;64432.41;4823185;29;20205;-74
2023/09/03 17:31:51;;;;;;;4.93;4.60;;;;;;;23.35;54.70;64419.84;4825928;29;20209;-72
2023/09/03 17:34:19;;;;;;;6.22;4.72;;;;;;;23.26;56.48;64410.94;4827161;29;20223;-73
2023/09/03 17:36:46;;;;;;;6.15;5.30;;;;;;;23.00;62.26;64381.16;4829984;29;20474;-74
2023/09/03 17:39:14;;;;;;;4.88;4.45;;;;;;;22.92;62.12;64375.91;4833380;29;20205;-75
2023/09/03 17:41:41;;;;;;;5.13;3.85;;;;;;;22.91;61.03;64376.94;4835178;29;20361;-73
2023/09/03 17:44:09;;;;;;;5.28;4.88;;;;;;;22.86;61.23;64374.28;4817490;29;20471;-75
2023/09/03 17:46:36;;;;;;;5.07;4.68;;;;;;;22.81;61.89;64363.88;4836510;29;20241;-73
2023/09/03 17:49:05;;;;;;;4.40;4.10;;;;;;;22.86;59.33;64369.63;4831632;29;20229;-74
2023/09/03 17:51:33;;;;;;;5.13;4.72;;;;;;;22.88;57.85;64366.00;4835496;29;20229;-74
2023/09/03 17:54:00;;;;;;;4.57;4.28;;;;;;;22.91;57.34;64369.13;4834974;29;20197;-77
2023/09/03 17:56:27;;;;;;;4.65;4.18;;;;;;;22.98;56.07;64381.66;4835707;29;20216;-75
2023/09/03 17:58:54;;;;;;;4.78;4.30;;;;;;;23.04;53.25;64387.91;4831649;29;20268;-75
2023/09/03 18:01:21;;;;;;;4.90;4.40;;;;;;;23.05;53.79;64388.97;4836721;29;20225;-74
2023/09/03 18:03:48;;;;;;;6.50;4.68;;;;;;;23.11;53.29;64392.66;4834543;29;20229;-76
2023/09/03 18:06:16;;;;;;;6.93;4.28;;;;;;;23.16;52.32;64400.47;4829233;29;20524;-73
2023/09/03 18:08:44;;;;;;;4.78;4.40;;;;;;;23.21;51.41;64407.78;4832182;29;20218;-75
2023/09/03 18:11:13;;;;;;;4.60;4.20;;;;;;;23.23;51.66;64405.19;4834277;29;20272;-75
2023/09/03 18:13:41;;;;;;;4.78;4.38;;;;;;;23.34;50.45;64419.31;4828588;29;20231;-74
2023/09/03 18:16:08;;;;;;;4.70;4.30;;;;;;;23.28;50.73;64410.44;4823671;29;20233;-76
2023/09/03 18:18:35;;;;;;;8.25;4.30;;;;;;;23.41;50.67;64428.72;4834700;29;20221;-75
2023/09/03 18:21:03;;;;;;;6.97;4.60;;;;;;;23.45;50.19;64428.22;4830850;29;20222;-75
2023/09/03 18:23:30;;;;;;;4.78;4.32;;;;;;;23.46;49.48;64428.75;4832345;29;20244;-74
2023/09/03 18:25:59;;;;;;;5.75;5.25;;;;;;;23.48;49.47;64433.97;4831240;29;20249;-74
2023/09/03 18:28:26;;;;;;;5.40;4.38;;;;;;;23.48;48.92;64431.38;4825677;29;20193;-74
2023/09/03 18:30:53;;;;;;;4.00;3.78;;;;;;;23.52;48.97;64437.63;4825665;29;20643;-73
2023/09/03 18:33:20;;;;;;;4.25;3.95;;;;;;;23.51;48.82;64437.13;4820734;29;20213;-74
2023/09/03 18:35:47;;;;;;;5.35;4.43;;;;;;;23.54;49.14;64439.75;4836826;29;20281;-74
2023/09/03 18:38:14;;;;;;;4.68;4.35;;;;;;;23.55;48.27;64435.56;4834511;29;20564;-74
2023/09/03 18:40:41;;;;;;;4.68;4.28;;;;;;;23.59;48.21;64439.75;4853451;29;20235;-75
2023/09/03 18:43:13;;;;;;;3.65;3.45;;;;;;;23.59;47.52;64439.75;4842444;29;20216;-74
2023/09/03 18:45:40;;;;;;;6.07;4.15;;;;;;;23.59;46.77;64442.38;4834156;29;20229;-76
2023/09/03 18:48:07;;;;;;;4.10;3.60;;;;;;;23.61;47.29;64449.66;4835313;29;20212;-75
2023/09/03 18:50:36;;;;;;;6.10;4.10;;;;;;;23.67;47.05;64456.47;4836724;29;20278;-77
2023/09/03 18:53:03;;;;;;;4.38;4.07;;;;;;;23.68;46.46;64452.28;4836886;29;20212;-75
2023/09/03 18:55:30;;;;;;;3.95;3.65;;;;;;;23.64;46.57;64447.59;4835056;29;20608;-75
2023/09/03 18:57:57;;;;;;;3.90;3.60;;;;;;;23.62;46.06;64445.50;4839784;29;20200;-75
2023/09/03 19:00:26;;;;;;;4.20;3.90;;;;;;;23.64;45.89;64450.19;4846379;29;20220;-77
2023/09/03 19:02:53;;;;;;;4.35;3.95;;;;;;;23.73;45.50;64459.59;4833532;29;20431;-75
2023/09/03 19:05:21;;;;;;;4.20;3.80;;;;;;;23.76;44.72;64465.88;4836616;29;20591;-76
2023/09/03 19:07:49;;;;;;;3.55;3.30;;;;;;;23.79;45.34;64468.50;4844465;29;20354;-76
2023/09/03 19:10:18;;;;;;;35.58;11.43;;;;;;;23.75;45.46;64459.63;4832410;29;20220;-75
2023/09/03 19:12:44;;;;;;;6.28;3.70;;;;;;;23.82;45.07;64469.56;4834956;29;20274;-77
2023/09/03 19:15:11;;;;;;;14.07;6.75;;;;;;;23.92;44.86;64479.47;4835615;29;20225;-75
2023/09/03 19:17:40;;;;;;;16.55;7.90;;;;;;;23.97;44.93;64482.13;4834543;29;20216;-76
2023/09/03 19:20:08;;;;;;;4.05;3.67;;;;;;;23.95;44.72;64477.94;4836214;29;20216;-74
2023/09/03 19:22:35;;;;;;;5.38;3.88;;;;;;;24.00;44.83;64485.28;4836474;29;20201;-74
2023/09/03 19:25:03;;;;;;;4.60;4.20;;;;;;;24.01;45.97;64486.31;4837915;29;20240;-76
2023/09/03 19:27:29;;;;;;;4.50;4.10;;;;;;;23.95;46.85;64483.16;4840091;29;20286;-74
2023/09/03 19:29:56;;;;;;;4.25;3.85;;;;;;;23.67;47.46;64455.94;4835324;29;20540;-75
2023/09/03 19:32:23;;;;;;;6.45;4.40;;;;;;;23.76;47.39;64462.75;4835539;29;20222;-75
2023/09/03 19:34:52;;;;;;;4.03;3.72;;;;;;;23.81;47.68;64471.13;4838935;29;20287;-77
2023/09/03 19:37:19;;;;;;;5.47;4.47;;;;;;;23.71;48.74;64460.13;4836725;29;20623;-75
2023/09/03 19:39:47;;;;;;;6.70;5.30;;;;;;;23.67;49.63;64451.25;4836821;29;20229;-75
2023/09/03 19:42:14;;;;;;;7.20;5.63;;;;;;;23.64;50.57;64450.69;4839339;29;20232;-75
2023/09/03 19:44:41;;;;;;;5.53;5.03;;;;;;;23.68;50.63;64454.38;4836522;29;20243;-76
2023/09/03 19:47:08;;;;;;;5.25;4.85;;;;;;;23.67;50.36;64455.94;4829494;29;20277;-74
2023/09/03 19:49:35;;;;;;;5.90;5.22;;;;;;;23.66;50.40;64449.69;4823700;29;20255;-76
2023/09/03 19:52:04;;;;;;;6.20;5.50;;;;;;;23.67;51.28;64453.84;4839291;29;20335;-77
2023/09/03 19:54:31;;;;;;;4.55;4.15;;;;;;;23.66;51.38;64447.09;4836844;29;20296;-75
2023/09/03 19:56:58;;;;;;;5.28;4.70;;;;;;;23.61;51.97;64449.66;4824296;29;20250;-76
2023/09/03 19:59:25;;;;;;;5.35;4.85;;;;;;;23.57;51.23;64443.38;4830937;29;20272;-75
2023/09/03 20:01:52;;;;;;;4.85;4.45;;;;;;;23.54;51.14;64440.25;4837328;29;20510;-74
2023/09/03 20:04:19;;;;;;;5.65;4.78;;;;;;;23.45;51.89;64428.22;4835410;29;20263;-74
2023/09/03 20:06:46;;;;;;;5.15;4.65;;;;;;;23.35;52.41;64419.84;4839528;29;20204;-75